createdAt,value
2019-03-01T00:00:35.327Z,14.40
2019-03-01T00:01:35.321Z,15.40
2019-03-01T00:02:35.317Z,15.40
2019-03-01T00:03:35.311Z,14.30
2019-03-01T00:04:35.306Z,15.10
2019-03-01T00:05:35.299Z,15.50
2019-03-01T00:06:35.296Z,15.40
2019-03-01T00:07:35.288Z,14.70
2019-03-01T00:08:35.535Z,15.70
2019-03-01T00:09:35.277Z,15.70
2019-03-01T00:10:35.274Z,15.10
2019-03-01T00:11:35.266Z,14.10
2019-03-01T00:12:35.264Z,14.30
2019-03-01T00:13:35.257Z,14.30
2019-03-01T00:14:35.253Z,15.00
2019-03-01T00:15:35.245Z,16.00
2019-03-01T00:16:35.242Z,15.20
2019-03-01T00:17:35.235Z,15.70
2019-03-01T00:18:35.242Z,16.30
2019-03-01T00:19:35.223Z,15.20
2019-03-01T00:20:35.809Z,17.10
2019-03-01T00:21:35.214Z,15.10
2019-03-01T00:22:35.211Z,17.40
2019-03-01T00:23:35.210Z,16.50
2019-03-01T00:24:35.227Z,15.70
2019-03-01T00:25:35.192Z,16.50
2019-03-01T00:26:35.191Z,15.60
2019-03-01T00:27:35.178Z,15.40
2019-03-01T00:28:35.178Z,15.50
2019-03-01T00:29:35.169Z,16.30
2019-03-01T00:30:35.165Z,15.70
2019-03-01T00:31:35.158Z,16.70
2019-03-01T00:32:35.160Z,16.60
2019-03-01T00:33:35.160Z,17.00
2019-03-01T00:34:35.142Z,17.40
2019-03-01T00:35:35.175Z,18.00
2019-03-01T00:36:35.130Z,17.00
2019-03-01T00:37:35.126Z,16.80
2019-03-01T00:38:35.120Z,16.80
2019-03-01T00:39:35.111Z,17.60
2019-03-01T00:40:35.108Z,15.80
2019-03-01T00:41:35.100Z,16.90
2019-03-01T00:42:35.098Z,16.30
2019-03-01T00:43:35.089Z,17.20
2019-03-01T00:44:35.087Z,17.40
2019-03-01T00:45:35.079Z,16.80
2019-03-01T00:46:35.076Z,16.20
2019-03-01T00:47:35.069Z,16.30
2019-03-01T00:48:35.065Z,16.60
2019-03-01T00:49:35.057Z,17.50
2019-03-01T00:50:35.055Z,16.30
2019-03-01T00:51:35.046Z,17.40
2019-03-01T00:52:35.044Z,17.10
2019-03-01T00:53:35.037Z,17.20
2019-03-01T00:54:35.033Z,17.90
2019-03-01T00:55:35.025Z,18.40
2019-03-01T00:56:35.025Z,18.60
2019-03-01T00:57:35.013Z,17.30
2019-03-01T00:58:35.010Z,17.70
2019-03-01T00:59:35.001Z,19.30
2019-03-01T01:00:35.000Z,18.00
2019-03-01T01:01:34.994Z,18.20
2019-03-01T01:02:34.989Z,17.80
2019-03-01T01:03:34.980Z,19.10
2019-03-01T01:04:34.979Z,19.20
2019-03-01T01:05:34.970Z,17.90
2019-03-01T01:06:34.970Z,18.20
2019-03-01T01:07:34.960Z,17.70
2019-03-01T01:08:34.955Z,18.70
2019-03-01T01:09:34.951Z,18.10
2019-03-01T01:10:34.946Z,18.60
2019-03-01T01:11:34.937Z,18.30
2019-03-01T01:12:34.934Z,18.20
2019-03-01T01:13:34.930Z,19.10
2019-03-01T01:14:34.925Z,18.10
2019-03-01T01:15:34.959Z,19.20
2019-03-01T01:16:34.911Z,18.70
2019-03-01T01:17:34.903Z,19.70
2019-03-01T01:18:34.914Z,19.90
2019-03-01T01:19:34.892Z,18.70
2019-03-01T01:20:34.889Z,17.80
2019-03-01T01:21:34.882Z,19.40
2019-03-01T01:22:34.878Z,19.00
2019-03-01T01:23:34.871Z,18.20
2019-03-01T01:24:34.867Z,19.70
2019-03-01T01:25:34.859Z,20.20
2019-03-01T01:26:34.856Z,20.20
2019-03-01T01:27:34.849Z,19.60
2019-03-01T01:28:34.852Z,21.10
2019-03-01T01:29:34.838Z,20.00
2019-03-01T01:30:34.835Z,20.80
2019-03-01T01:31:34.825Z,21.20
2019-03-01T01:32:34.822Z,20.90
2019-03-01T01:33:34.814Z,20.40
2019-03-01T01:34:34.810Z,20.50
2019-03-01T01:35:34.801Z,20.50
2019-03-01T01:36:34.799Z,21.70
2019-03-01T01:37:34.797Z,22.20
2019-03-01T01:38:34.789Z,21.90
2019-03-01T01:39:34.779Z,21.60
2019-03-01T01:40:34.777Z,23.30
2019-03-01T01:41:34.819Z,22.50
2019-03-01T01:42:34.766Z,22.80
2019-03-01T01:43:34.758Z,22.00
2019-03-01T01:44:34.756Z,22.50
2019-03-01T01:45:34.745Z,21.60
2019-03-01T01:46:34.743Z,21.90
2019-03-01T01:47:34.733Z,22.00
2019-03-01T01:48:34.741Z,21.50
2019-03-01T01:49:34.723Z,22.70
2019-03-01T01:50:34.730Z,21.00
2019-03-01T01:51:34.711Z,22.40
2019-03-01T01:52:34.708Z,22.80
2019-03-01T01:53:34.701Z,22.30
2019-03-01T01:54:34.697Z,22.50
2019-03-01T01:55:34.689Z,23.20
2019-03-01T01:56:34.688Z,23.00
2019-03-01T01:57:34.678Z,24.40
2019-03-01T01:58:34.674Z,23.10
2019-03-01T01:59:34.666Z,24.50
2019-03-01T02:00:34.663Z,23.40
2019-03-01T02:01:34.655Z,22.80
2019-03-01T02:02:34.753Z,23.50
2019-03-01T02:03:34.643Z,22.10
2019-03-01T02:04:34.641Z,22.70
2019-03-01T02:05:34.638Z,21.30
2019-03-01T02:06:34.632Z,22.50
2019-03-01T02:07:34.621Z,21.50
2019-03-01T02:08:34.620Z,22.80
2019-03-01T02:09:34.611Z,24.70
2019-03-01T02:10:34.610Z,23.70
2019-03-01T02:11:34.598Z,24.70
2019-03-01T02:12:34.597Z,24.40
2019-03-01T02:13:34.587Z,23.30
2019-03-01T02:14:34.583Z,23.00
2019-03-01T02:15:34.575Z,24.90
2019-03-01T02:16:34.573Z,24.40
2019-03-01T02:17:34.567Z,25.90
2019-03-01T02:18:34.560Z,27.50
2019-03-01T02:19:34.551Z,27.10
2019-03-01T02:20:34.547Z,27.90
2019-03-01T02:21:34.540Z,27.00
2019-03-01T02:22:34.536Z,28.40
2019-03-01T02:23:34.528Z,28.00
2019-03-01T02:24:34.524Z,28.50
2019-03-01T02:25:34.516Z,29.00
2019-03-01T02:26:34.513Z,29.00
2019-03-01T02:27:34.504Z,29.10
2019-03-01T02:28:34.502Z,30.10
2019-03-01T02:29:34.502Z,28.50
2019-03-01T02:30:34.492Z,29.10
2019-03-01T02:31:34.480Z,30.50
2019-03-01T02:32:34.477Z,30.30
2019-03-01T02:33:34.473Z,29.80
2019-03-01T02:34:34.493Z,31.20
2019-03-01T02:35:34.456Z,30.50
2019-03-01T02:36:34.453Z,29.40
2019-03-01T02:37:34.454Z,30.80
2019-03-01T02:38:34.442Z,30.00
2019-03-01T02:39:34.433Z,29.50
2019-03-01T02:40:34.430Z,28.90
2019-03-01T02:41:34.421Z,29.00
2019-03-01T02:42:34.422Z,30.00
2019-03-01T02:43:34.410Z,31.00
2019-03-01T02:44:34.409Z,29.50
2019-03-01T02:45:34.397Z,30.70
2019-03-01T02:46:34.395Z,31.10
2019-03-01T02:47:34.384Z,30.90
2019-03-01T02:48:34.381Z,30.90
2019-03-01T02:49:34.376Z,28.50
2019-03-01T02:50:34.392Z,30.10
2019-03-01T02:51:34.380Z,29.40
2019-03-01T02:52:34.361Z,30.00
2019-03-01T02:53:34.351Z,30.30
2019-03-01T02:54:34.347Z,30.70
2019-03-01T02:55:34.338Z,28.20
2019-03-01T02:56:34.334Z,30.50
2019-03-01T02:57:34.327Z,28.50
2019-03-01T02:58:34.340Z,30.30
2019-03-01T02:59:34.325Z,29.20
2019-03-01T03:00:34.311Z,30.50
2019-03-01T03:01:34.312Z,28.90
2019-03-01T03:02:34.299Z,29.20
2019-03-01T03:03:34.290Z,27.90
2019-03-01T03:04:34.287Z,30.40
2019-03-01T03:05:34.279Z,28.80
2019-03-01T03:06:34.274Z,29.10
2019-03-01T03:07:34.266Z,28.80
2019-03-01T03:08:34.262Z,29.20
2019-03-01T03:09:34.255Z,28.50
2019-03-01T03:10:34.251Z,28.80
2019-03-01T03:11:34.247Z,30.70
2019-03-01T03:12:34.303Z,29.60
2019-03-01T03:13:34.235Z,30.20
2019-03-01T03:14:34.230Z,30.70
2019-03-01T03:15:34.219Z,30.50
2019-03-01T03:16:34.215Z,30.20
2019-03-01T03:17:34.210Z,29.80
2019-03-01T03:18:34.208Z,28.50
2019-03-01T03:19:34.196Z,29.30
2019-03-01T03:20:34.191Z,29.00
2019-03-01T03:21:34.183Z,30.20
2019-03-01T03:22:34.181Z,28.80
2019-03-01T03:23:34.171Z,28.90
2019-03-01T03:24:34.167Z,28.90
2019-03-01T03:25:34.162Z,29.70
2019-03-01T03:26:34.161Z,30.10
2019-03-01T03:27:34.147Z,29.80
2019-03-01T03:28:34.145Z,28.80
2019-03-01T03:29:34.136Z,30.30
2019-03-01T03:30:34.274Z,29.90
2019-03-01T03:31:34.163Z,29.60
2019-03-01T03:32:34.121Z,29.60
2019-03-01T03:33:34.119Z,29.10
2019-03-01T03:34:34.111Z,28.70
2019-03-01T03:35:34.104Z,29.00
2019-03-01T03:36:34.098Z,29.10
2019-03-01T03:37:34.091Z,27.90
2019-03-01T03:38:34.088Z,28.50
2019-03-01T03:39:34.079Z,29.00
2019-03-01T03:40:34.077Z,29.20
2019-03-01T03:41:34.068Z,28.80
2019-03-01T03:42:34.066Z,28.70
2019-03-01T03:43:34.059Z,29.20
2019-03-01T03:44:34.053Z,28.80
2019-03-01T03:45:34.049Z,27.20
2019-03-01T03:46:34.041Z,28.30
2019-03-01T03:47:34.034Z,28.30
2019-03-01T03:48:36.258Z,29.80
2019-03-01T03:49:34.023Z,28.10
2019-03-01T03:50:34.019Z,28.90
2019-03-01T03:51:34.311Z,29.80
2019-03-01T03:52:34.011Z,29.90
2019-03-01T03:53:34.000Z,29.70
2019-03-01T03:54:34.000Z,28.00
2019-03-01T03:55:34.001Z,31.50
2019-03-01T03:56:33.991Z,31.10
2019-03-01T03:57:33.978Z,31.40
2019-03-01T03:58:33.976Z,32.10
2019-03-01T03:59:33.968Z,32.50
2019-03-01T04:00:33.963Z,32.70
2019-03-01T04:01:33.956Z,32.10
2019-03-01T04:02:34.031Z,32.30
2019-03-01T04:03:33.947Z,34.10
2019-03-01T04:04:33.941Z,33.80
2019-03-01T04:05:33.941Z,34.80
2019-03-01T04:06:33.935Z,34.80
2019-03-01T04:07:33.925Z,33.90
2019-03-01T04:08:33.916Z,34.00
2019-03-01T04:09:33.928Z,35.60
2019-03-01T04:10:33.905Z,34.80
2019-03-01T04:11:33.904Z,35.10
2019-03-01T04:12:33.893Z,34.90
2019-03-01T04:13:33.892Z,36.20
2019-03-01T04:14:33.919Z,35.40
2019-03-01T04:15:34.128Z,37.00
2019-03-01T04:16:33.872Z,35.70
2019-03-01T04:17:33.869Z,35.80
2019-03-01T04:18:33.862Z,36.00
2019-03-01T04:19:33.855Z,35.60
2019-03-01T04:20:33.847Z,35.00
2019-03-01T04:21:34.094Z,35.70
2019-03-01T04:22:33.844Z,36.80
2019-03-01T04:23:33.832Z,37.60
2019-03-01T04:24:33.822Z,38.80
2019-03-01T04:25:33.827Z,39.10
2019-03-01T04:26:33.825Z,39.40
2019-03-01T04:27:33.807Z,38.60
2019-03-01T04:28:33.799Z,37.50
2019-03-01T04:29:33.800Z,37.70
2019-03-01T04:30:33.788Z,37.70
2019-03-01T04:31:33.784Z,39.30
2019-03-01T04:32:33.776Z,38.60
2019-03-01T04:33:33.773Z,39.90
2019-03-01T04:34:33.768Z,39.60
2019-03-01T04:35:33.761Z,39.10
2019-03-01T04:36:33.754Z,37.90
2019-03-01T04:37:33.750Z,38.10
2019-03-01T04:38:33.742Z,38.20
2019-03-01T04:39:33.737Z,39.00
2019-03-01T04:40:33.731Z,38.60
2019-03-01T04:41:33.727Z,39.10
2019-03-01T04:42:33.719Z,37.90
2019-03-01T04:43:33.715Z,36.60
2019-03-01T04:44:33.707Z,39.50
2019-03-01T04:45:33.703Z,38.20
2019-03-01T04:46:33.696Z,39.20
2019-03-01T04:47:33.692Z,33.60
2019-03-01T04:48:33.690Z,37.00
2019-03-01T04:49:33.682Z,35.90
2019-03-01T04:50:33.672Z,38.10
2019-03-01T04:51:39.916Z,38.40
2019-03-01T04:52:33.661Z,39.00
2019-03-01T04:53:33.657Z,35.20
2019-03-01T04:54:33.657Z,40.00
2019-03-01T04:55:33.647Z,39.20
2019-03-01T04:56:33.637Z,39.70
2019-03-01T04:57:33.634Z,40.20
2019-03-01T04:58:33.625Z,40.10
2019-03-01T04:59:33.621Z,40.60
2019-03-01T05:00:33.613Z,39.70
2019-03-01T05:01:33.610Z,39.30
2019-03-01T05:02:33.706Z,39.50
2019-03-01T05:03:33.597Z,40.20
2019-03-01T05:04:33.589Z,40.90
2019-03-01T05:05:33.586Z,38.90
2019-03-01T05:06:33.579Z,39.80
2019-03-01T05:07:33.574Z,39.80
2019-03-01T05:08:33.567Z,39.70
2019-03-01T05:09:33.564Z,38.30
2019-03-01T05:10:33.557Z,39.20
2019-03-01T05:11:33.553Z,38.60
2019-03-01T05:12:33.546Z,40.00
2019-03-01T05:13:33.549Z,39.20
2019-03-01T05:14:33.581Z,39.20
2019-03-01T05:15:33.533Z,38.80
2019-03-01T05:16:33.526Z,39.00
2019-03-01T05:17:33.519Z,38.30
2019-03-01T05:18:33.514Z,39.30
2019-03-01T05:19:33.509Z,38.80
2019-03-01T05:20:33.501Z,39.00
2019-03-01T05:21:33.498Z,38.70
2019-03-01T05:22:33.491Z,38.80
2019-03-01T05:23:33.494Z,40.50
2019-03-01T05:24:33.524Z,40.10
2019-03-01T05:25:33.500Z,39.10
2019-03-01T05:26:33.469Z,39.20
2019-03-01T05:27:33.465Z,38.90
2019-03-01T05:28:33.463Z,39.40
2019-03-01T05:29:33.456Z,39.80
2019-03-01T05:30:33.448Z,38.50
2019-03-01T05:31:33.445Z,39.60
2019-03-01T05:32:33.436Z,39.50
2019-03-01T05:33:33.433Z,39.30
2019-03-01T05:34:33.428Z,38.70
2019-03-01T05:35:33.422Z,38.70
2019-03-01T05:36:33.415Z,38.30
2019-03-01T05:37:33.413Z,37.00
2019-03-01T05:38:33.404Z,37.20
2019-03-01T05:39:33.401Z,37.60
2019-03-01T05:40:33.396Z,37.50
2019-03-01T05:41:33.394Z,36.50
2019-03-01T05:42:33.384Z,37.00
2019-03-01T05:43:33.386Z,35.90
2019-03-01T05:44:33.373Z,35.70
2019-03-01T05:45:33.380Z,36.70
2019-03-01T05:46:33.369Z,37.50
2019-03-01T05:47:33.359Z,36.70
2019-03-01T05:48:33.354Z,38.60
2019-03-01T05:49:33.350Z,37.80
2019-03-01T05:50:33.342Z,37.50
2019-03-01T05:51:33.348Z,37.00
2019-03-01T05:52:33.331Z,38.60
2019-03-01T05:53:33.330Z,37.20
2019-03-01T05:54:33.324Z,36.50
2019-03-01T05:55:33.319Z,33.90
2019-03-01T05:56:33.331Z,36.70
2019-03-01T05:57:33.322Z,35.10
2019-03-01T05:58:33.300Z,36.10
2019-03-01T05:59:33.296Z,34.80
2019-03-01T06:00:33.294Z,36.20
2019-03-01T06:01:33.285Z,37.30
2019-03-01T06:02:33.289Z,36.70
2019-03-01T06:03:33.277Z,37.20
2019-03-01T06:04:33.267Z,37.80
2019-03-01T06:05:33.264Z,37.60
2019-03-01T06:06:33.257Z,35.70
2019-03-01T06:07:33.253Z,36.90
2019-03-01T06:08:33.262Z,37.20
2019-03-01T06:09:33.256Z,37.50
2019-03-01T06:10:33.235Z,38.00
2019-03-01T06:11:33.235Z,37.90
2019-03-01T06:12:33.253Z,37.10
2019-03-01T06:13:33.221Z,36.80
2019-03-01T06:14:33.218Z,36.80
2019-03-01T06:15:33.210Z,37.30
2019-03-01T06:16:33.225Z,36.70
2019-03-01T06:17:33.200Z,36.90
2019-03-01T06:18:33.202Z,38.50
2019-03-01T06:19:33.192Z,38.50
2019-03-01T06:20:33.196Z,37.10
2019-03-01T06:21:33.190Z,37.00
2019-03-01T06:22:33.172Z,37.70
2019-03-01T06:23:33.176Z,37.70
2019-03-01T06:24:33.182Z,37.10
2019-03-01T06:25:33.159Z,36.50
2019-03-01T06:26:33.451Z,35.40
2019-03-01T06:27:33.147Z,34.90
2019-03-01T06:28:33.143Z,34.70
2019-03-01T06:29:33.142Z,35.10
2019-03-01T06:30:33.132Z,33.90
2019-03-01T06:31:33.127Z,34.30
2019-03-01T06:32:33.130Z,34.20
2019-03-01T06:33:33.117Z,34.20
2019-03-01T06:34:33.110Z,35.10
2019-03-01T06:35:33.109Z,34.20
2019-03-01T06:36:33.100Z,34.40
2019-03-01T06:37:33.098Z,34.40
2019-03-01T06:38:33.095Z,33.60
2019-03-01T06:42:43.853Z,34.20
2019-03-01T06:43:43.848Z,33.30
2019-03-01T06:44:43.840Z,34.00
2019-03-01T06:45:43.838Z,32.80
2019-03-01T06:46:43.831Z,33.20
2019-03-01T06:47:43.830Z,33.80
2019-03-01T06:48:43.822Z,34.60
2019-03-01T06:49:43.817Z,34.20
2019-03-01T06:50:43.811Z,32.50
2019-03-01T06:51:43.808Z,33.10
2019-03-01T06:52:43.809Z,33.40
2019-03-01T06:53:44.100Z,32.60
2019-03-01T06:54:43.791Z,33.30
2019-03-01T06:55:43.789Z,33.80
2019-03-01T06:56:43.783Z,34.50
2019-03-01T06:57:43.778Z,32.70
2019-03-01T06:58:43.784Z,33.70
2019-03-01T06:59:43.771Z,32.80
2019-03-01T07:00:50.101Z,32.70
2019-03-01T07:01:43.759Z,33.80
2019-03-01T07:02:43.755Z,32.60
2019-03-01T07:03:43.753Z,33.40
2019-03-01T07:04:43.743Z,32.30
2019-03-01T07:05:43.741Z,33.30
2019-03-01T07:06:43.734Z,33.70
2019-03-01T07:07:43.732Z,33.50
2019-03-01T07:08:43.734Z,32.90
2019-03-01T07:09:43.725Z,31.10
2019-03-01T07:10:43.715Z,31.70
2019-03-01T07:11:43.713Z,32.60
2019-03-01T07:12:43.743Z,31.90
2019-03-01T07:13:43.702Z,32.70
2019-03-01T07:14:43.694Z,31.90
2019-03-01T07:15:43.693Z,32.90
2019-03-01T07:16:43.686Z,33.20
2019-03-01T07:17:43.687Z,33.60
2019-03-01T07:18:43.686Z,32.30
2019-03-01T07:19:43.692Z,33.00
2019-03-01T07:20:43.669Z,32.60
2019-03-01T07:21:43.665Z,29.90
2019-03-01T07:22:43.659Z,30.80
2019-03-01T07:23:43.654Z,29.00
2019-03-01T07:24:43.653Z,30.10
2019-03-01T07:25:43.646Z,29.10
2019-03-01T07:26:43.637Z,29.60
2019-03-01T07:27:43.641Z,31.10
2019-03-01T07:28:43.929Z,31.00
2019-03-01T07:29:43.644Z,32.20
2019-03-01T07:30:43.621Z,31.10
2019-03-01T07:31:43.617Z,31.10
2019-03-01T07:32:43.610Z,30.10
2019-03-01T07:33:43.607Z,30.30
2019-03-01T07:34:43.611Z,31.00
2019-03-01T07:35:43.598Z,31.90
2019-03-01T07:36:43.592Z,31.80
2019-03-01T07:37:43.589Z,31.90
2019-03-01T07:38:43.582Z,30.80
2019-03-01T07:39:43.580Z,29.90
2019-03-01T07:40:43.574Z,30.00
2019-03-01T07:41:43.570Z,31.90
2019-03-01T07:42:43.564Z,32.90
2019-03-01T07:43:43.562Z,33.40
2019-03-01T07:44:43.561Z,33.70
2019-03-01T07:45:43.552Z,32.90
2019-03-01T07:46:52.709Z,34.50
2019-03-01T07:47:43.544Z,34.70
2019-03-01T07:48:43.538Z,34.70
2019-03-01T07:49:43.541Z,33.10
2019-03-01T07:50:43.527Z,34.00
2019-03-01T07:51:43.536Z,34.40
2019-03-01T07:52:43.522Z,33.80
2019-03-01T07:53:43.517Z,35.30
2019-03-01T07:54:43.510Z,33.70
2019-03-01T07:55:44.122Z,34.50
2019-03-01T07:56:43.500Z,35.20
2019-03-01T07:57:46.618Z,35.30
2019-03-01T07:58:43.792Z,35.60
2019-03-01T07:59:43.489Z,36.10
2019-03-01T08:00:46.519Z,36.00
2019-03-01T08:01:43.479Z,34.40
2019-03-01T08:02:45.551Z,35.00
2019-03-01T08:03:49.300Z,34.50
2019-03-01T08:04:43.464Z,36.50
2019-03-01T08:05:43.460Z,35.40
2019-03-01T08:06:45.602Z,35.40
2019-03-01T08:07:43.451Z,34.50
2019-03-01T08:08:43.448Z,35.40
2019-03-01T08:09:44.846Z,35.60
2019-03-01T08:10:43.439Z,35.00
2019-03-01T08:11:43.440Z,34.20
2019-03-01T08:12:43.531Z,35.90
2019-03-01T08:13:43.425Z,35.90
2019-03-01T08:14:43.420Z,36.40
2019-03-01T08:15:45.010Z,35.00
2019-03-01T08:16:43.409Z,36.00
2019-03-01T08:17:43.406Z,35.70
2019-03-01T08:18:44.275Z,35.40
2019-03-01T08:19:45.545Z,36.80
2019-03-01T08:20:43.391Z,35.40
2019-03-01T08:21:45.899Z,35.70
2019-03-01T08:22:48.464Z,36.40
2019-03-01T08:23:43.384Z,36.90
2019-03-01T08:24:46.591Z,36.90
2019-03-01T08:25:43.369Z,35.10
2019-03-01T08:26:43.363Z,34.60
2019-03-01T08:27:46.350Z,35.00
2019-03-01T08:28:43.654Z,33.40
2019-03-01T08:29:43.351Z,34.20
2019-03-01T08:30:45.758Z,33.50
2019-03-01T08:31:43.343Z,33.50
2019-03-01T08:32:43.334Z,33.30
2019-03-01T08:33:43.663Z,32.70
2019-03-01T08:34:43.325Z,33.50
2019-03-01T08:35:43.324Z,33.00
2019-03-01T08:36:43.674Z,35.20
2019-03-01T08:37:43.313Z,33.10
2019-03-01T08:38:43.307Z,34.00
2019-03-01T08:39:43.305Z,33.10
2019-03-01T08:40:43.297Z,31.90
2019-03-01T08:41:43.294Z,31.00
2019-03-01T08:42:43.289Z,31.20
2019-03-01T08:43:44.713Z,30.20
2019-03-01T08:44:43.279Z,30.80
2019-03-01T08:45:43.275Z,30.20
2019-03-01T08:46:45.559Z,32.10
2019-03-01T08:47:43.267Z,30.80
2019-03-01T08:48:43.260Z,30.50
2019-03-01T08:49:43.256Z,30.90
2019-03-01T08:50:43.250Z,30.50
2019-03-01T08:51:43.250Z,30.10
2019-03-01T08:52:43.247Z,32.00
2019-03-01T08:53:43.237Z,31.70
2019-03-01T08:54:43.232Z,30.60
2019-03-01T08:55:43.242Z,30.00
2019-03-01T08:56:46.478Z,31.60
2019-03-01T08:57:44.429Z,31.90
2019-03-01T08:58:43.211Z,31.50
2019-03-01T08:59:43.209Z,31.20
2019-03-01T09:00:43.202Z,31.40
2019-03-01T09:01:45.011Z,31.40
2019-03-01T09:02:43.192Z,32.10
2019-03-01T09:03:43.190Z,31.60
2019-03-01T09:04:50.669Z,32.20
2019-03-01T09:05:43.180Z,31.60
2019-03-01T09:06:43.174Z,32.20
2019-03-01T09:07:43.173Z,31.70
2019-03-01T09:08:46.041Z,32.80
2019-03-01T09:09:43.160Z,32.20
2019-03-01T09:10:43.155Z,32.10
2019-03-01T09:11:44.610Z,32.50
2019-03-01T09:12:43.144Z,32.30
2019-03-01T09:13:43.141Z,33.90
2019-03-01T09:14:43.135Z,31.70
2019-03-01T09:15:46.150Z,33.00
2019-03-01T09:17:43.121Z,33.00
2019-03-01T09:18:43.117Z,33.10
2019-03-01T09:19:43.110Z,32.90
2019-03-01T09:20:43.111Z,32.90
2019-03-01T09:21:44.700Z,34.20
2019-03-01T09:22:43.108Z,34.10
2019-03-01T09:23:43.092Z,34.50
2019-03-01T09:24:43.089Z,35.40
2019-03-01T09:25:44.648Z,33.80
2019-03-01T09:26:43.079Z,34.60
2019-03-01T09:27:43.078Z,34.90
2019-03-01T09:28:43.434Z,34.80
2019-03-01T09:29:43.065Z,34.50
2019-03-01T09:30:43.501Z,32.80
2019-03-01T09:31:43.053Z,35.40
2019-03-01T09:32:43.051Z,34.80
2019-03-01T09:33:43.045Z,35.00
2019-03-01T09:34:43.046Z,34.40
2019-03-01T09:35:43.964Z,33.70
2019-03-01T09:36:43.035Z,32.70
2019-03-01T09:37:43.026Z,32.40
2019-03-01T09:38:43.679Z,32.30
2019-03-01T09:39:43.018Z,32.10
2019-03-01T09:40:43.016Z,31.30
2019-03-01T09:41:43.008Z,31.60
2019-03-01T09:42:43.008Z,32.10
2019-03-01T09:43:43.000Z,32.60
2019-03-01T09:44:42.999Z,32.90
2019-03-01T09:45:45.754Z,32.40
2019-03-01T09:46:42.991Z,32.60
2019-03-01T09:47:42.988Z,31.60
2019-03-01T09:48:45.632Z,31.40
2019-03-01T09:49:42.981Z,30.80
2019-03-01T09:50:42.973Z,32.50
2019-03-01T09:51:43.740Z,32.40
2019-03-01T09:52:42.967Z,31.10
2019-03-01T09:53:42.962Z,32.00
2019-03-01T09:54:42.957Z,32.30
2019-03-01T09:55:42.951Z,32.10
2019-03-01T09:56:42.951Z,33.10
2019-03-01T09:57:42.942Z,32.00
2019-03-01T09:58:43.041Z,32.40
2019-03-01T09:59:42.935Z,33.40
2019-03-01T10:00:42.933Z,32.00
2019-03-01T10:01:42.985Z,31.60
2019-03-01T10:02:42.924Z,32.70
2019-03-01T10:03:42.919Z,33.00
2019-03-01T10:04:42.917Z,32.20
2019-03-01T10:05:42.910Z,32.40
2019-03-01T10:06:42.910Z,33.90
2019-03-01T10:07:42.903Z,32.60
2019-03-01T10:08:42.902Z,31.80
2019-03-01T10:09:42.898Z,32.50
2019-03-01T10:10:42.894Z,32.40
2019-03-01T10:11:42.888Z,33.90
2019-03-01T10:12:42.893Z,32.20
2019-03-01T10:13:42.882Z,32.70
2019-03-01T10:14:42.885Z,34.60
2019-03-01T10:15:42.892Z,33.40
2019-03-01T10:16:42.891Z,32.50
2019-03-01T10:17:42.866Z,34.00
2019-03-01T10:18:42.863Z,34.70
2019-03-01T10:19:42.858Z,33.00
2019-03-01T10:20:42.856Z,33.50
2019-03-01T10:21:42.851Z,38.20
2019-03-01T10:22:42.849Z,41.40
2019-03-01T10:23:42.865Z,43.10
2019-03-01T10:24:42.841Z,45.00
2019-03-01T10:25:42.835Z,43.60
2019-03-01T10:26:42.840Z,47.30
2019-03-01T10:27:42.838Z,48.90
2019-03-01T10:28:42.825Z,50.30
2019-03-01T10:29:42.817Z,50.20
2019-03-01T10:30:42.814Z,50.30
2019-03-01T10:31:42.808Z,50.10
2019-03-01T10:32:42.805Z,52.50
2019-03-01T10:33:42.798Z,50.60
2019-03-01T10:34:42.795Z,52.00
2019-03-01T10:35:42.802Z,51.90
2019-03-01T10:36:46.621Z,53.50
2019-03-01T10:37:42.778Z,51.80
2019-03-01T10:38:42.776Z,50.50
2019-03-01T10:39:42.769Z,52.10
2019-03-01T10:40:42.766Z,51.70
2019-03-01T10:41:42.763Z,51.20
2019-03-01T10:42:42.755Z,49.10
2019-03-01T10:43:42.748Z,48.90
2019-03-01T10:44:42.746Z,47.80
2019-03-01T10:45:42.756Z,47.70
2019-03-01T10:46:42.739Z,46.50
2019-03-01T10:47:43.029Z,44.80
2019-03-01T10:48:42.737Z,45.80
2019-03-01T10:49:42.717Z,45.40
2019-03-01T10:50:42.714Z,41.80
2019-03-01T10:51:42.707Z,39.90
2019-03-01T10:52:42.704Z,40.80
2019-03-01T10:53:42.747Z,40.30
2019-03-01T10:54:42.693Z,39.40
2019-03-01T10:55:42.687Z,38.30
2019-03-01T10:56:42.683Z,37.40
2019-03-01T10:57:42.674Z,35.90
2019-03-01T10:58:42.671Z,36.10
2019-03-01T10:59:42.666Z,36.10
2019-03-01T11:00:42.659Z,35.30
2019-03-01T11:01:42.655Z,36.20
2019-03-01T11:02:42.648Z,38.20
2019-03-01T11:03:42.645Z,36.40
2019-03-01T11:04:42.637Z,38.40
2019-03-01T11:05:42.633Z,40.00
2019-03-01T11:06:42.625Z,38.50
2019-03-01T11:07:42.625Z,39.10
2019-03-01T11:08:42.616Z,36.80
2019-03-01T11:09:42.610Z,38.00
2019-03-01T11:10:42.648Z,38.30
2019-03-01T11:11:42.599Z,37.00
2019-03-01T11:12:42.591Z,36.70
2019-03-01T11:13:42.588Z,36.70
2019-03-01T11:14:42.582Z,36.60
2019-03-01T11:15:42.575Z,34.40
2019-03-01T11:16:42.571Z,34.90
2019-03-01T11:17:42.564Z,32.40
2019-03-01T11:18:42.558Z,29.10
2019-03-01T11:19:42.552Z,29.00
2019-03-01T11:20:42.544Z,28.90
2019-03-01T11:21:42.539Z,28.40
2019-03-01T11:22:42.535Z,27.50
2019-03-01T11:23:42.530Z,26.80
2019-03-01T11:24:42.520Z,25.20
2019-03-01T11:25:42.516Z,27.40
2019-03-01T11:26:42.508Z,26.40
2019-03-01T11:27:42.504Z,26.00
2019-03-01T11:28:42.496Z,25.30
2019-03-01T11:29:42.492Z,25.10
2019-03-01T11:30:42.483Z,24.70
2019-03-01T11:31:42.480Z,26.30
2019-03-01T11:32:42.470Z,25.30
2019-03-01T11:33:42.465Z,26.00
2019-03-01T11:34:42.457Z,25.90
2019-03-01T11:35:42.456Z,26.20
2019-03-01T11:36:42.446Z,27.30
2019-03-01T11:37:42.441Z,26.10
2019-03-01T11:38:42.433Z,27.80
2019-03-01T11:39:42.431Z,26.90
2019-03-01T11:40:42.419Z,27.20
2019-03-01T11:41:42.418Z,25.50
2019-03-01T11:42:42.406Z,26.90
2019-03-01T11:43:42.402Z,26.50
2019-03-01T11:44:42.393Z,26.60
2019-03-01T11:45:42.389Z,25.70
2019-03-01T11:46:42.385Z,25.60
2019-03-01T11:47:42.377Z,24.10
2019-03-01T11:48:42.368Z,23.90
2019-03-01T11:49:42.364Z,23.90
2019-03-01T11:50:42.353Z,23.90
2019-03-01T11:51:42.349Z,23.20
2019-03-01T11:52:42.341Z,22.60
2019-03-01T11:53:44.957Z,22.20
2019-03-01T11:54:42.328Z,21.00
2019-03-01T11:55:42.326Z,20.30
2019-03-01T11:56:42.316Z,19.70
2019-03-01T11:57:42.313Z,20.20
2019-03-01T11:58:42.301Z,20.20
2019-03-01T11:59:42.297Z,19.30
2019-03-01T12:00:51.773Z,19.20
2019-03-01T12:01:42.283Z,18.60
2019-03-01T12:02:42.274Z,17.40
2019-03-01T12:03:42.271Z,18.30
2019-03-01T12:04:42.514Z,18.10
2019-03-01T12:05:42.257Z,17.50
2019-03-01T12:09:07.929Z,19.60
2019-03-01T12:10:07.925Z,18.50
2019-03-01T12:11:07.915Z,19.70
2019-03-01T12:12:07.910Z,18.60
2019-03-01T12:13:07.904Z,19.20
2019-03-01T12:14:07.897Z,18.60
2019-03-01T12:15:07.889Z,17.90
2019-03-01T12:16:07.883Z,18.20
2019-03-01T12:17:07.875Z,16.90
2019-03-01T12:18:07.870Z,16.70
2019-03-01T12:19:07.863Z,17.20
2019-03-01T12:20:07.857Z,16.90
2019-03-01T12:21:07.848Z,16.80
2019-03-01T12:22:16.734Z,16.20
2019-03-01T12:23:07.834Z,17.00
2019-03-01T12:24:07.830Z,17.00
2019-03-01T12:25:07.821Z,15.50
2019-03-01T12:26:07.817Z,16.30
2019-03-01T12:27:08.212Z,16.30
2019-03-01T12:28:07.804Z,17.10
2019-03-01T12:29:07.796Z,16.40
2019-03-01T12:30:07.791Z,16.60
2019-03-01T12:31:07.782Z,16.70
2019-03-01T12:32:07.777Z,17.10
2019-03-01T12:33:07.768Z,16.50
2019-03-01T12:34:07.764Z,17.40
2019-03-01T12:35:07.754Z,17.90
2019-03-01T12:36:07.750Z,18.30
2019-03-01T12:37:07.744Z,17.70
2019-03-01T12:38:07.739Z,18.20
2019-03-01T12:39:09.784Z,18.30
2019-03-01T12:40:07.725Z,19.10
2019-03-01T12:41:07.714Z,18.00
2019-03-01T12:42:07.710Z,18.90
2019-03-01T12:43:07.710Z,18.30
2019-03-01T12:44:07.696Z,20.40
2019-03-01T12:45:07.738Z,18.80
2019-03-01T12:46:07.683Z,19.10
2019-03-01T12:47:08.887Z,19.00
2019-03-01T12:48:07.669Z,19.30
2019-03-01T12:49:07.660Z,18.00
2019-03-01T12:50:07.657Z,19.60
2019-03-01T12:51:07.646Z,19.60
2019-03-01T12:52:07.643Z,18.50
2019-03-01T12:53:07.633Z,18.90
2019-03-01T12:54:07.629Z,19.00
2019-03-01T12:55:07.621Z,19.60
2019-03-01T12:56:07.818Z,19.60
2019-03-01T12:57:07.811Z,19.30
2019-03-01T12:58:07.613Z,18.70
2019-03-01T12:59:07.594Z,18.30